sensor_id;sensor_type;location;lat;lon;timestamp;pressure;altitude;pressure_sealevel;temperature;humidity
45941;BME280;31858;46.008;8.978;2023-01-28T00:00:43;94255.97;;;-0.60;100.00
45941;BME280;31858;46.008;8.978;2023-01-28T00:10:45;94254.44;;;-0.52;100.00
45941;BME280;31858;46.008;8.978;2023-01-28T00:20:56;94233.34;;;-0.47;100.00
45941;BME280;31858;46.008;8.978;2023-01-28T00:31:05;94225.50;;;-0.47;100.00
45941;BME280;31858;46.008;8.978;2023-01-28T00:41:08;94233.97;;;-0.59;100.00
45941;BME280;31858;46.008;8.978;2023-01-28T00:51:12;94233.34;;;-0.64;100.00
45941;BME280;31858;46.008;8.978;2023-01-28T01:01:17;94227.16;;;-0.77;100.00
45941;BME280;31858;46.008;8.978;2023-01-28T01:11:19;94246.88;;;-0.80;100.00
45941;BME280;31858;46.008;8.978;2023-01-28T01:21:24;94253.63;;;-0.79;100.00
45941;BME280;31858;46.008;8.978;2023-01-28T01:31:26;94247.78;;;-0.76;100.00
45941;BME280;31858;46.008;8.978;2023-01-28T01:41:30;94253.19;;;-0.81;100.00
45941;BME280;31858;46.008;8.978;2023-01-28T01:51:33;94265.66;;;-0.52;100.00
45941;BME280;31858;46.008;8.978;2023-01-28T02:01:37;94265.22;;;-0.45;100.00
45941;BME280;31858;46.008;8.978;2023-01-28T02:11:40;94267.22;;;-0.51;100.00
45941;BME280;31858;46.008;8.978;2023-01-28T02:21:56;94269.50;;;-0.58;100.00
45941;BME280;31858;46.008;8.978;2023-01-28T02:32:07;94264.72;;;-0.64;100.00
45941;BME280;31858;46.008;8.978;2023-01-28T02:42:16;94269.63;;;-0.89;100.00
45941;BME280;31858;46.008;8.978;2023-01-28T02:52:29;94268.88;;;-0.81;100.00
45941;BME280;31858;46.008;8.978;2023-01-28T03:02:52;94277.63;;;-0.94;100.00
45941;BME280;31858;46.008;8.978;2023-01-28T03:13:00;94278.81;;;-1.00;100.00
45941;BME280;31858;46.008;8.978;2023-01-28T03:23:22;94277.88;;;-1.13;100.00
45941;BME280;31858;46.008;8.978;2023-01-28T03:33:47;94279.91;;;-1.01;100.00
45941;BME280;31858;46.008;8.978;2023-01-28T03:44:07;94298.22;;;-0.92;100.00
45941;BME280;31858;46.008;8.978;2023-01-28T03:54:28;94301.25;;;-1.16;100.00
45941;BME280;31858;46.008;8.978;2023-01-28T04:04:29;94298.47;;;-1.11;100.00
45941;BME280;31858;46.008;8.978;2023-01-28T04:14:33;94306.19;;;-1.06;100.00
45941;BME280;31858;46.008;8.978;2023-01-28T04:24:34;94304.97;;;-1.09;100.00
45941;BME280;31858;46.008;8.978;2023-01-28T04:34:37;94310.03;;;-1.12;100.00
45941;BME280;31858;46.008;8.978;2023-01-28T04:44:39;94309.81;;;-1.24;100.00
45941;BME280;31858;46.008;8.978;2023-01-28T04:54:42;94329.34;;;-1.22;100.00
45941;BME280;31858;46.008;8.978;2023-01-28T05:04:43;94329.22;;;-1.17;100.00
45941;BME280;31858;46.008;8.978;2023-01-28T05:14:46;94351.47;;;-1.28;100.00
45941;BME280;31858;46.008;8.978;2023-01-28T05:24:48;94365.97;;;-1.22;100.00
45941;BME280;31858;46.008;8.978;2023-01-28T05:34:51;94377.78;;;-1.24;100.00
45941;BME280;31858;46.008;8.978;2023-01-28T05:44:52;94382.16;;;-1.11;100.00
45941;BME280;31858;46.008;8.978;2023-01-28T05:54:55;94394.00;;;-1.14;100.00
45941;BME280;31858;46.008;8.978;2023-01-28T06:04:57;94398.56;;;-1.19;100.00
45941;BME280;31858;46.008;8.978;2023-01-28T06:15:00;94406.94;;;-1.40;100.00
45941;BME280;31858;46.008;8.978;2023-01-28T06:25:01;94411.28;;;-1.35;100.00
45941;BME280;31858;46.008;8.978;2023-01-28T06:35:05;94414.91;;;-1.45;100.00
45941;BME280;31858;46.008;8.978;2023-01-28T06:45:07;94440.56;;;-1.47;100.00
45941;BME280;31858;46.008;8.978;2023-01-28T06:55:10;94447.22;;;-1.41;100.00
45941;BME280;31858;46.008;8.978;2023-01-28T07:05:12;94449.06;;;-1.63;100.00
45941;BME280;31858;46.008;8.978;2023-01-28T07:15:15;94451.97;;;-1.43;100.00
45941;BME280;31858;46.008;8.978;2023-01-28T07:25:17;94472.63;;;-1.33;100.00
45941;BME280;31858;46.008;8.978;2023-01-28T07:35:20;94476.66;;;-1.26;100.00
45941;BME280;31858;46.008;8.978;2023-01-28T07:45:23;94484.22;;;-1.47;100.00
45941;BME280;31858;46.008;8.978;2023-01-28T07:55:26;94491.81;;;-1.59;100.00
45941;BME280;31858;46.008;8.978;2023-01-28T08:05:37;94505.13;;;-1.47;100.00
45941;BME280;31858;46.008;8.978;2023-01-28T08:15:41;94504.78;;;-1.32;100.00
45941;BME280;31858;46.008;8.978;2023-01-28T08:25:44;94515.47;;;-1.42;100.00
45941;BME280;31858;46.008;8.978;2023-01-28T08:35:47;94524.31;;;-1.07;100.00
45941;BME280;31858;46.008;8.978;2023-01-28T08:45:48;94544.09;;;-1.15;100.00
45941;BME280;31858;46.008;8.978;2023-01-28T08:55:52;94551.38;;;-1.25;100.00
45941;BME280;31858;46.008;8.978;2023-01-28T09:05:59;94553.78;;;-1.15;100.00
45941;BME280;31858;46.008;8.978;2023-01-28T09:16:05;94562.50;;;-1.20;100.00
45941;BME280;31858;46.008;8.978;2023-01-28T09:26:07;94584.34;;;-0.80;100.00
45941;BME280;31858;46.008;8.978;2023-01-28T09:36:10;94588.97;;;-0.77;100.00
45941;BME280;31858;46.008;8.978;2023-01-28T09:46:13;94581.97;;;-0.68;100.00
45941;BME280;31858;46.008;8.978;2023-01-28T09:56:24;94582.69;;;-0.14;100.00
45941;BME280;31858;46.008;8.978;2023-01-28T10:06:33;94584.88;;;-0.07;100.00
45941;BME280;31858;46.008;8.978;2023-01-28T10:16:47;94586.28;;;0.08;100.00
45941;BME280;31858;46.008;8.978;2023-01-28T10:26:50;94579.09;;;0.22;100.00
45941;BME280;31858;46.008;8.978;2023-01-28T10:36:53;94568.06;;;0.59;100.00
45941;BME280;31858;46.008;8.978;2023-01-28T10:47:01;94564.84;;;0.97;100.00
45941;BME280;31858;46.008;8.978;2023-01-28T10:57:09;94557.75;;;1.06;100.00
45941;BME280;31858;46.008;8.978;2023-01-28T11:07:16;94556.34;;;1.09;100.00
45941;BME280;31858;46.008;8.978;2023-01-28T11:17:21;94546.00;;;1.29;100.00
45941;BME280;31858;46.008;8.978;2023-01-28T11:27:27;94541.28;;;1.52;100.00
45941;BME280;31858;46.008;8.978;2023-01-28T11:37:31;94540.03;;;1.58;100.00
45941;BME280;31858;46.008;8.978;2023-01-28T11:47:39;94521.72;;;1.79;100.00
45941;BME280;31858;46.008;8.978;2023-01-28T11:57:52;94505.97;;;2.09;100.00
45941;BME280;31858;46.008;8.978;2023-01-28T12:08:05;94494.09;;;2.32;100.00
45941;BME280;31858;46.008;8.978;2023-01-28T12:18:20;94481.22;;;2.72;88.96
45941;BME280;31858;46.008;8.978;2023-01-28T12:28:34;94466.72;;;2.87;78.20
45941;BME280;31858;46.008;8.978;2023-01-28T12:38:47;94463.16;;;3.04;68.63
45941;BME280;31858;46.008;8.978;2023-01-28T12:48:58;94455.88;;;3.34;69.74
45941;BME280;31858;46.008;8.978;2023-01-28T12:59:06;94449.66;;;3.63;70.67
45941;BME280;31858;46.008;8.978;2023-01-28T13:09:15;94444.56;;;3.94;73.55
45941;BME280;31858;46.008;8.978;2023-01-28T13:19:24;94456.88;;;4.14;71.39
45941;BME280;31858;46.008;8.978;2023-01-28T13:29:30;94460.91;;;4.36;66.44
45941;BME280;31858;46.008;8.978;2023-01-28T13:39:35;94463.41;;;4.45;58.58
45941;BME280;31858;46.008;8.978;2023-01-28T13:49:39;94463.69;;;4.68;55.85
45941;BME280;31858;46.008;8.978;2023-01-28T13:59:48;94454.19;;;4.79;54.31
45941;BME280;31858;46.008;8.978;2023-01-28T14:10:05;94460.66;;;4.81;51.26
45941;BME280;31858;46.008;8.978;2023-01-28T14:20:17;94468.00;;;4.88;55.45
45941;BME280;31858;46.008;8.978;2023-01-28T14:30:24;94475.50;;;4.86;55.82
45941;BME280;31858;46.008;8.978;2023-01-28T14:40:36;94475.44;;;4.98;55.85
45941;BME280;31858;46.008;8.978;2023-01-28T14:50:57;94469.16;;;5.03;54.27
45941;BME280;31858;46.008;8.978;2023-01-28T15:01:03;94481.59;;;5.02;52.34
45941;BME280;31858;46.008;8.978;2023-01-28T15:11:05;94489.78;;;4.85;54.02
45941;BME280;31858;46.008;8.978;2023-01-28T15:21:09;94500.94;;;4.78;53.73
45941;BME280;31858;46.008;8.978;2023-01-28T15:31:19;94494.72;;;4.58;53.54
45941;BME280;31858;46.008;8.978;2023-01-28T15:41:27;94504.53;;;4.34;55.87
45941;BME280;31858;46.008;8.978;2023-01-28T15:51:31;94527.06;;;4.31;61.12
45941;BME280;31858;46.008;8.978;2023-01-28T16:01:34;94519.28;;;4.10;61.39
45941;BME280;31858;46.008;8.978;2023-01-28T16:11:37;94531.16;;;3.80;66.29
45941;BME280;31858;46.008;8.978;2023-01-28T16:21:45;94542.09;;;3.57;68.95
45941;BME280;31858;46.008;8.978;2023-01-28T16:31:46;94549.50;;;3.43;73.24
45941;BME280;31858;46.008;8.978;2023-01-28T16:41:50;94564.22;;;3.44;78.47
45941;BME280;31858;46.008;8.978;2023-01-28T16:51:52;94577.75;;;3.22;76.26
45941;BME280;31858;46.008;8.978;2023-01-28T17:01:55;94582.19;;;2.88;75.02
45941;BME280;31858;46.008;8.978;2023-01-28T17:11:57;94585.91;;;2.87;75.58
45941;BME280;31858;46.008;8.978;2023-01-28T17:22:00;94597.97;;;2.88;76.70
45941;BME280;31858;46.008;8.978;2023-01-28T17:32:01;94612.53;;;2.86;77.62
45941;BME280;31858;46.008;8.978;2023-01-28T17:42:05;94627.16;;;2.54;76.18
45941;BME280;31858;46.008;8.978;2023-01-28T17:52:06;94639.25;;;2.46;78.21
45941;BME280;31858;46.008;8.978;2023-01-28T18:02:10;94651.03;;;2.40;82.95
45941;BME280;31858;46.008;8.978;2023-01-28T18:12:14;94658.47;;;2.38;84.02
45941;BME280;31858;46.008;8.978;2023-01-28T18:22:17;94676.31;;;2.24;80.78
45941;BME280;31858;46.008;8.978;2023-01-28T18:32:18;94686.38;;;2.13;82.41
45941;BME280;31858;46.008;8.978;2023-01-28T18:42:21;94700.13;;;2.19;82.97
45941;BME280;31858;46.008;8.978;2023-01-28T18:52:23;94721.16;;;2.19;87.19
45941;BME280;31858;46.008;8.978;2023-01-28T19:02:26;94731.09;;;2.05;94.40
45941;BME280;31858;46.008;8.978;2023-01-28T19:12:27;94741.94;;;1.86;98.91
45941;BME280;31858;46.008;8.978;2023-01-28T19:22:31;94756.94;;;1.68;99.16
45941;BME280;31858;46.008;8.978;2023-01-28T19:32:33;94764.81;;;1.68;96.95
45941;BME280;31858;46.008;8.978;2023-01-28T19:42:36;94769.59;;;1.83;99.95
45941;BME280;31858;46.008;8.978;2023-01-28T19:52:37;94776.09;;;1.60;100.00
45941;BME280;31858;46.008;8.978;2023-01-28T20:02:40;94784.25;;;1.50;100.00
45941;BME280;31858;46.008;8.978;2023-01-28T20:12:42;94790.25;;;1.33;100.00
45941;BME280;31858;46.008;8.978;2023-01-28T20:22:45;94808.00;;;1.19;100.00
45941;BME280;31858;46.008;8.978;2023-01-28T20:32:46;94822.47;;;1.08;100.00
45941;BME280;31858;46.008;8.978;2023-01-28T20:42:49;94837.91;;;1.09;100.00
45941;BME280;31858;46.008;8.978;2023-01-28T20:52:51;94850.22;;;1.00;100.00
45941;BME280;31858;46.008;8.978;2023-01-28T21:02:54;94862.72;;;0.94;100.00
45941;BME280;31858;46.008;8.978;2023-01-28T21:12:55;94861.84;;;0.77;100.00
45941;BME280;31858;46.008;8.978;2023-01-28T21:22:58;94867.69;;;0.74;100.00
45941;BME280;31858;46.008;8.978;2023-01-28T21:33:00;94878.53;;;0.81;100.00
45941;BME280;31858;46.008;8.978;2023-01-28T21:43:03;94886.34;;;0.72;100.00
45941;BME280;31858;46.008;8.978;2023-01-28T21:53:05;94894.78;;;0.60;100.00
45941;BME280;31858;46.008;8.978;2023-01-28T22:03:07;94896.91;;;0.58;100.00
45941;BME280;31858;46.008;8.978;2023-01-28T22:13:09;94909.31;;;0.44;100.00
45941;BME280;31858;46.008;8.978;2023-01-28T22:23:12;94910.56;;;0.47;100.00
45941;BME280;31858;46.008;8.978;2023-01-28T22:33:14;94919.19;;;0.47;100.00
45941;BME280;31858;46.008;8.978;2023-01-28T22:43:17;94918.97;;;0.35;100.00
45941;BME280;31858;46.008;8.978;2023-01-28T22:53:18;94929.22;;;0.45;100.00
45941;BME280;31858;46.008;8.978;2023-01-28T23:03:21;94935.94;;;0.38;100.00
45941;BME280;31858;46.008;8.978;2023-01-28T23:13:24;94936.81;;;0.33;100.00
45941;BME280;31858;46.008;8.978;2023-01-28T23:23:28;94934.16;;;0.11;100.00
45941;BME280;31858;46.008;8.978;2023-01-28T23:33:47;94942.47;;;0.26;100.00
45941;BME280;31858;46.008;8.978;2023-01-28T23:43:51;94952.59;;;0.19;100.00
45941;BME280;31858;46.008;8.978;2023-01-28T23:53:52;94960.34;;;0.24;100.00
